sensor_id;sensor_type;location;lat;lon;timestamp;temperature;humidity
3756;DHT22;1893;52.526;13.360;2023-03-05T00:00:50;3.20;99.90
3756;DHT22;1893;52.526;13.360;2023-03-05T00:03:16;3.20;99.90
3756;DHT22;1893;52.526;13.360;2023-03-05T00:05:41;3.10;99.90
3756;DHT22;1893;52.526;13.360;2023-03-05T00:08:07;3.10;99.90
3756;DHT22;1893;52.526;13.360;2023-03-05T00:10:32;2.90;99.90
3756;DHT22;1893;52.526;13.360;2023-03-05T00:12:58;2.80;99.90
3756;DHT22;1893;52.526;13.360;2023-03-05T00:15:24;2.70;99.90
3756;DHT22;1893;52.526;13.360;2023-03-05T00:17:49;2.70;99.90
3756;DHT22;1893;52.526;13.360;2023-03-05T00:20:15;2.70;99.90
3756;DHT22;1893;52.526;13.360;2023-03-05T00:22:41;2.60;99.90
3756;DHT22;1893;52.526;13.360;2023-03-05T00:25:07;2.70;99.90
3756;DHT22;1893;52.526;13.360;2023-03-05T00:27:32;2.70;99.90
3756;DHT22;1893;52.526;13.360;2023-03-05T00:29:58;2.70;99.90
3756;DHT22;1893;52.526;13.360;2023-03-05T00:32:24;2.50;99.90
3756;DHT22;1893;52.526;13.360;2023-03-05T00:34:49;2.50;99.90
3756;DHT22;1893;52.526;13.360;2023-03-05T00:37:15;2.50;99.90
3756;DHT22;1893;52.526;13.360;2023-03-05T00:39:41;2.50;99.90
3756;DHT22;1893;52.526;13.360;2023-03-05T00:42:07;2.50;99.90
3756;DHT22;1893;52.526;13.360;2023-03-05T00:44:32;2.60;99.90
3756;DHT22;1893;52.526;13.360;2023-03-05T00:46:58;2.50;99.90
3756;DHT22;1893;52.526;13.360;2023-03-05T00:49:24;2.50;99.90
3756;DHT22;1893;52.526;13.360;2023-03-05T00:51:49;2.60;99.90
3756;DHT22;1893;52.526;13.360;2023-03-05T00:54:15;2.50;99.90
3756;DHT22;1893;52.526;13.360;2023-03-05T00:56:41;2.50;99.90
3756;DHT22;1893;52.526;13.360;2023-03-05T00:59:06;2.50;99.90
3756;DHT22;1893;52.526;13.360;2023-03-05T01:01:32;2.50;99.90
3756;DHT22;1893;52.526;13.360;2023-03-05T01:03:57;2.50;99.90
3756;DHT22;1893;52.526;13.360;2023-03-05T01:06:25;2.50;99.90
3756;DHT22;1893;52.526;13.360;2023-03-05T01:08:51;2.60;99.90
3756;DHT22;1893;52.526;13.360;2023-03-05T01:11:17;2.60;99.90
3756;DHT22;1893;52.526;13.360;2023-03-05T01:13:43;2.60;99.90
3756;DHT22;1893;52.526;13.360;2023-03-05T01:16:08;2.60;99.90
3756;DHT22;1893;52.526;13.360;2023-03-05T01:18:34;2.60;99.90
3756;DHT22;1893;52.526;13.360;2023-03-05T01:21:02;2.60;99.90
3756;DHT22;1893;52.526;13.360;2023-03-05T01:23:28;2.60;99.90
3756;DHT22;1893;52.526;13.360;2023-03-05T01:25:58;2.60;99.90
3756;DHT22;1893;52.526;13.360;2023-03-05T01:28:24;2.60;99.90
3756;DHT22;1893;52.526;13.360;2023-03-05T01:30:50;2.60;99.90
3756;DHT22;1893;52.526;13.360;2023-03-05T01:33:16;2.60;99.90
3756;DHT22;1893;52.526;13.360;2023-03-05T01:35:45;2.60;99.90
3756;DHT22;1893;52.526;13.360;2023-03-05T01:38:11;2.50;99.90
3756;DHT22;1893;52.526;13.360;2023-03-05T01:40:36;2.50;99.90
3756;DHT22;1893;52.526;13.360;2023-03-05T01:45:38;2.50;99.90
3756;DHT22;1893;52.526;13.360;2023-03-05T01:48:04;2.50;99.90
3756;DHT22;1893;52.526;13.360;2023-03-05T01:50:29;2.50;99.90
3756;DHT22;1893;52.526;13.360;2023-03-05T01:53:01;2.40;99.90
3756;DHT22;1893;52.526;13.360;2023-03-05T01:55:29;2.40;99.90
3756;DHT22;1893;52.526;13.360;2023-03-05T01:58:01;2.30;99.90
3756;DHT22;1893;52.526;13.360;2023-03-05T02:00:30;2.20;99.90
3756;DHT22;1893;52.526;13.360;2023-03-05T02:03:02;2.20;99.90
3756;DHT22;1893;52.526;13.360;2023-03-05T02:05:34;2.20;99.90
3756;DHT22;1893;52.526;13.360;2023-03-05T02:08:04;2.20;99.90
3756;DHT22;1893;52.526;13.360;2023-03-05T02:10:36;2.20;99.90
3756;DHT22;1893;52.526;13.360;2023-03-05T02:13:07;2.20;99.90
3756;DHT22;1893;52.526;13.360;2023-03-05T02:15:34;2.20;99.90
3756;DHT22;1893;52.526;13.360;2023-03-05T02:18:00;2.10;99.90
3756;DHT22;1893;52.526;13.360;2023-03-05T02:20:41;2.10;99.90
3756;DHT22;1893;52.526;13.360;2023-03-05T02:23:07;2.10;99.90
3756;DHT22;1893;52.526;13.360;2023-03-05T02:25:33;2.20;99.90
3756;DHT22;1893;52.526;13.360;2023-03-05T02:30:29;2.10;99.90
3756;DHT22;1893;52.526;13.360;2023-03-05T02:32:56;2.00;99.90
3756;DHT22;1893;52.526;13.360;2023-03-05T02:35:21;2.10;99.90
3756;DHT22;1893;52.526;13.360;2023-03-05T02:37:47;2.10;99.90
3756;DHT22;1893;52.526;13.360;2023-03-05T02:40:13;2.00;99.90
3756;DHT22;1893;52.526;13.360;2023-03-05T02:42:39;2.00;99.90
3756;DHT22;1893;52.526;13.360;2023-03-05T02:45:06;2.00;99.90
3756;DHT22;1893;52.526;13.360;2023-03-05T02:47:31;2.00;99.90
3756;DHT22;1893;52.526;13.360;2023-03-05T02:49:57;2.00;99.90
3756;DHT22;1893;52.526;13.360;2023-03-05T02:52:23;1.90;99.90
3756;DHT22;1893;52.526;13.360;2023-03-05T02:54:50;2.00;99.90
3756;DHT22;1893;52.526;13.360;2023-03-05T02:57:17;1.90;99.90
3756;DHT22;1893;52.526;13.360;2023-03-05T02:59:43;2.20;99.90
3756;DHT22;1893;52.526;13.360;2023-03-05T03:02:08;2.00;99.90
3756;DHT22;1893;52.526;13.360;2023-03-05T03:04:34;2.00;99.90
3756;DHT22;1893;52.526;13.360;2023-03-05T03:07:00;2.10;99.90
3756;DHT22;1893;52.526;13.360;2023-03-05T03:09:25;2.00;99.90
3756;DHT22;1893;52.526;13.360;2023-03-05T03:11:52;2.00;99.90
3756;DHT22;1893;52.526;13.360;2023-03-05T03:14:18;2.00;99.90
3756;DHT22;1893;52.526;13.360;2023-03-05T03:16:43;2.10;99.90
3756;DHT22;1893;52.526;13.360;2023-03-05T03:19:09;2.10;99.90
3756;DHT22;1893;52.526;13.360;2023-03-05T03:21:35;2.10;99.90
3756;DHT22;1893;52.526;13.360;2023-03-05T03:24:00;2.10;99.90
3756;DHT22;1893;52.526;13.360;2023-03-05T03:26:26;2.10;99.90
3756;DHT22;1893;52.526;13.360;2023-03-05T03:28:52;2.10;99.90
3756;DHT22;1893;52.526;13.360;2023-03-05T03:31:18;2.10;99.90
3756;DHT22;1893;52.526;13.360;2023-03-05T03:33:43;2.10;99.90
3756;DHT22;1893;52.526;13.360;2023-03-05T03:36:09;2.10;99.90
3756;DHT22;1893;52.526;13.360;2023-03-05T03:38:35;2.10;99.90
3756;DHT22;1893;52.526;13.360;2023-03-05T03:41:01;2.10;99.90
3756;DHT22;1893;52.526;13.360;2023-03-05T03:43:26;2.00;99.90
3756;DHT22;1893;52.526;13.360;2023-03-05T03:45:52;2.10;99.90
3756;DHT22;1893;52.526;13.360;2023-03-05T03:48:18;2.00;99.90
3756;DHT22;1893;52.526;13.360;2023-03-05T03:50:43;2.10;99.90
3756;DHT22;1893;52.526;13.360;2023-03-05T03:53:09;2.00;99.90
3756;DHT22;1893;52.526;13.360;2023-03-05T03:55:39;2.00;99.90
3756;DHT22;1893;52.526;13.360;2023-03-05T03:58:07;2.00;99.90
3756;DHT22;1893;52.526;13.360;2023-03-05T04:00:33;1.90;99.90
3756;DHT22;1893;52.526;13.360;2023-03-05T04:02:58;1.90;99.90
3756;DHT22;1893;52.526;13.360;2023-03-05T04:05:24;1.90;99.90
3756;DHT22;1893;52.526;13.360;2023-03-05T04:07:50;1.80;99.90
3756;DHT22;1893;52.526;13.360;2023-03-05T04:10:16;1.80;99.90
3756;DHT22;1893;52.526;13.360;2023-03-05T04:12:41;1.70;99.90
3756;DHT22;1893;52.526;13.360;2023-03-05T04:15:09;1.70;99.90
3756;DHT22;1893;52.526;13.360;2023-03-05T04:17:35;1.70;99.90
3756;DHT22;1893;52.526;13.360;2023-03-05T04:20:00;1.60;99.90
3756;DHT22;1893;52.526;13.360;2023-03-05T04:22:26;1.60;99.90
3756;DHT22;1893;52.526;13.360;2023-03-05T04:24:52;1.60;99.90
3756;DHT22;1893;52.526;13.360;2023-03-05T04:27:17;1.60;99.90
3756;DHT22;1893;52.526;13.360;2023-03-05T04:29:43;1.60;99.90
3756;DHT22;1893;52.526;13.360;2023-03-05T04:32:08;1.60;99.90
3756;DHT22;1893;52.526;13.360;2023-03-05T04:34:36;1.50;99.90
3756;DHT22;1893;52.526;13.360;2023-03-05T04:37:02;1.60;99.90
3756;DHT22;1893;52.526;13.360;2023-03-05T04:39:27;1.40;99.90
3756;DHT22;1893;52.526;13.360;2023-03-05T04:41:53;1.40;99.90
3756;DHT22;1893;52.526;13.360;2023-03-05T04:44:18;1.40;99.90
3756;DHT22;1893;52.526;13.360;2023-03-05T04:46:44;1.40;99.90
3756;DHT22;1893;52.526;13.360;2023-03-05T04:49:10;1.40;99.90
3756;DHT22;1893;52.526;13.360;2023-03-05T04:51:35;1.30;99.90
3756;DHT22;1893;52.526;13.360;2023-03-05T04:54:01;1.30;99.90
3756;DHT22;1893;52.526;13.360;2023-03-05T04:56:26;1.30;99.90
3756;DHT22;1893;52.526;13.360;2023-03-05T04:58:52;1.30;99.90
3756;DHT22;1893;52.526;13.360;2023-03-05T05:01:17;1.30;99.90
3756;DHT22;1893;52.526;13.360;2023-03-05T05:03:43;1.40;99.90
3756;DHT22;1893;52.526;13.360;2023-03-05T05:06:09;1.40;99.90
3756;DHT22;1893;52.526;13.360;2023-03-05T05:08:35;1.30;99.90
3756;DHT22;1893;52.526;13.360;2023-03-05T05:11:06;1.30;99.90
3756;DHT22;1893;52.526;13.360;2023-03-05T05:13:32;1.30;99.90
3756;DHT22;1893;52.526;13.360;2023-03-05T05:15:58;1.30;99.90
3756;DHT22;1893;52.526;13.360;2023-03-05T05:18:24;1.30;99.90
3756;DHT22;1893;52.526;13.360;2023-03-05T05:20:50;1.30;99.90
3756;DHT22;1893;52.526;13.360;2023-03-05T05:23:16;1.30;99.90
3756;DHT22;1893;52.526;13.360;2023-03-05T05:25:42;1.30;99.90
3756;DHT22;1893;52.526;13.360;2023-03-05T05:28:08;1.30;99.90
3756;DHT22;1893;52.526;13.360;2023-03-05T05:30:34;1.30;99.90
3756;DHT22;1893;52.526;13.360;2023-03-05T05:33:00;1.30;99.90
3756;DHT22;1893;52.526;13.360;2023-03-05T05:35:25;1.30;99.90
3756;DHT22;1893;52.526;13.360;2023-03-05T05:37:51;1.30;99.90
3756;DHT22;1893;52.526;13.360;2023-03-05T05:40:17;1.30;99.90
3756;DHT22;1893;52.526;13.360;2023-03-05T05:42:42;1.30;99.90
3756;DHT22;1893;52.526;13.360;2023-03-05T05:45:09;1.30;99.90
3756;DHT22;1893;52.526;13.360;2023-03-05T05:47:35;1.30;99.90
3756;DHT22;1893;52.526;13.360;2023-03-05T05:50:01;1.30;99.90
3756;DHT22;1893;52.526;13.360;2023-03-05T05:52:27;1.30;99.90
3756;DHT22;1893;52.526;13.360;2023-03-05T05:54:52;1.30;99.90
3756;DHT22;1893;52.526;13.360;2023-03-05T05:57:18;1.30;99.90
3756;DHT22;1893;52.526;13.360;2023-03-05T05:59:44;1.30;99.90
3756;DHT22;1893;52.526;13.360;2023-03-05T06:02:09;1.40;99.90
3756;DHT22;1893;52.526;13.360;2023-03-05T06:04:35;1.40;99.90
3756;DHT22;1893;52.526;13.360;2023-03-05T06:07:02;1.40;99.90
3756;DHT22;1893;52.526;13.360;2023-03-05T06:09:28;1.40;99.90
3756;DHT22;1893;52.526;13.360;2023-03-05T06:11:54;1.50;99.90
3756;DHT22;1893;52.526;13.360;2023-03-05T06:14:19;1.50;99.90
3756;DHT22;1893;52.526;13.360;2023-03-05T06:16:45;1.50;99.90
3756;DHT22;1893;52.526;13.360;2023-03-05T06:19:12;1.60;99.90
3756;DHT22;1893;52.526;13.360;2023-03-05T06:21:38;1.60;99.90
3756;DHT22;1893;52.526;13.360;2023-03-05T06:24:04;1.60;99.90
3756;DHT22;1893;52.526;13.360;2023-03-05T06:26:30;1.70;99.90
3756;DHT22;1893;52.526;13.360;2023-03-05T06:28:55;1.80;99.90
3756;DHT22;1893;52.526;13.360;2023-03-05T06:31:23;1.70;99.90
3756;DHT22;1893;52.526;13.360;2023-03-05T06:33:51;1.70;99.90
3756;DHT22;1893;52.526;13.360;2023-03-05T06:36:19;1.70;99.90
3756;DHT22;1893;52.526;13.360;2023-03-05T06:38:45;1.80;99.90
3756;DHT22;1893;52.526;13.360;2023-03-05T06:41:17;2.00;99.90
3756;DHT22;1893;52.526;13.360;2023-03-05T06:43:45;2.00;99.90
3756;DHT22;1893;52.526;13.360;2023-03-05T06:46:13;2.10;99.90
3756;DHT22;1893;52.526;13.360;2023-03-05T06:48:39;2.20;99.90
3756;DHT22;1893;52.526;13.360;2023-03-05T06:51:15;2.20;99.90
3756;DHT22;1893;52.526;13.360;2023-03-05T06:53:42;2.10;99.90
3756;DHT22;1893;52.526;13.360;2023-03-05T06:56:08;2.10;99.90
3756;DHT22;1893;52.526;13.360;2023-03-05T06:58:34;2.10;99.90
3756;DHT22;1893;52.526;13.360;2023-03-05T07:01:00;2.10;99.90
3756;DHT22;1893;52.526;13.360;2023-03-05T07:03:25;2.10;99.90
3756;DHT22;1893;52.526;13.360;2023-03-05T07:05:51;2.00;99.90
3756;DHT22;1893;52.526;13.360;2023-03-05T07:08:17;2.10;99.90
3756;DHT22;1893;52.526;13.360;2023-03-05T07:10:43;2.10;99.90
3756;DHT22;1893;52.526;13.360;2023-03-05T07:13:09;2.20;99.90
3756;DHT22;1893;52.526;13.360;2023-03-05T07:15:37;2.40;99.90
3756;DHT22;1893;52.526;13.360;2023-03-05T07:18:03;2.30;99.90
3756;DHT22;1893;52.526;13.360;2023-03-05T07:20:29;2.30;99.90
3756;DHT22;1893;52.526;13.360;2023-03-05T07:22:55;2.40;99.90
3756;DHT22;1893;52.526;13.360;2023-03-05T07:25:20;2.30;99.90
3756;DHT22;1893;52.526;13.360;2023-03-05T07:27:48;2.30;99.90
3756;DHT22;1893;52.526;13.360;2023-03-05T07:30:14;2.30;99.90
3756;DHT22;1893;52.526;13.360;2023-03-05T07:32:40;2.30;99.90
3756;DHT22;1893;52.526;13.360;2023-03-05T07:35:06;2.30;99.90
3756;DHT22;1893;52.526;13.360;2023-03-05T07:37:32;2.20;99.90
3756;DHT22;1893;52.526;13.360;2023-03-05T07:39:57;2.30;99.90
3756;DHT22;1893;52.526;13.360;2023-03-05T07:42:23;2.30;99.90
3756;DHT22;1893;52.526;13.360;2023-03-05T07:44:49;2.40;99.90
3756;DHT22;1893;52.526;13.360;2023-03-05T07:47:15;2.40;99.90
3756;DHT22;1893;52.526;13.360;2023-03-05T07:49:41;2.30;99.90
3756;DHT22;1893;52.526;13.360;2023-03-05T07:52:07;2.30;99.90
3756;DHT22;1893;52.526;13.360;2023-03-05T07:54:33;2.30;99.90
3756;DHT22;1893;52.526;13.360;2023-03-05T07:57:03;2.50;99.90
3756;DHT22;1893;52.526;13.360;2023-03-05T07:59:29;2.60;99.90
3756;DHT22;1893;52.526;13.360;2023-03-05T08:01:55;2.50;99.90
3756;DHT22;1893;52.526;13.360;2023-03-05T08:04:20;2.40;99.90
3756;DHT22;1893;52.526;13.360;2023-03-05T08:06:46;2.40;99.90
3756;DHT22;1893;52.526;13.360;2023-03-05T08:09:12;2.40;99.90
3756;DHT22;1893;52.526;13.360;2023-03-05T08:11:38;2.60;99.90
3756;DHT22;1893;52.526;13.360;2023-03-05T08:14:04;2.80;99.90
3756;DHT22;1893;52.526;13.360;2023-03-05T08:16:30;2.80;99.90
3756;DHT22;1893;52.526;13.360;2023-03-05T08:18:57;2.80;99.90
3756;DHT22;1893;52.526;13.360;2023-03-05T08:21:28;2.80;99.90
3756;DHT22;1893;52.526;13.360;2023-03-05T08:23:57;2.90;99.90
3756;DHT22;1893;52.526;13.360;2023-03-05T08:26:26;3.20;99.90
3756;DHT22;1893;52.526;13.360;2023-03-05T08:28:51;3.10;99.90
3756;DHT22;1893;52.526;13.360;2023-03-05T08:31:19;3.60;99.90
3756;DHT22;1893;52.526;13.360;2023-03-05T08:33:46;3.90;99.90
3756;DHT22;1893;52.526;13.360;2023-03-05T08:36:12;3.50;99.90
3756;DHT22;1893;52.526;13.360;2023-03-05T08:38:38;3.80;99.90
3756;DHT22;1893;52.526;13.360;2023-03-05T08:41:04;3.80;99.90
3756;DHT22;1893;52.526;13.360;2023-03-05T08:43:30;3.70;99.90
3756;DHT22;1893;52.526;13.360;2023-03-05T08:45:56;3.40;99.90
3756;DHT22;1893;52.526;13.360;2023-03-05T08:48:23;3.40;99.90
3756;DHT22;1893;52.526;13.360;2023-03-05T08:50:49;3.60;99.90
3756;DHT22;1893;52.526;13.360;2023-03-05T08:53:14;3.50;99.90
3756;DHT22;1893;52.526;13.360;2023-03-05T08:55:40;3.40;99.90
3756;DHT22;1893;52.526;13.360;2023-03-05T08:58:06;3.10;99.90
3756;DHT22;1893;52.526;13.360;2023-03-05T09:00:31;3.50;99.90
3756;DHT22;1893;52.526;13.360;2023-03-05T09:02:57;4.00;99.90
3756;DHT22;1893;52.526;13.360;2023-03-05T09:05:22;4.10;99.90
3756;DHT22;1893;52.526;13.360;2023-03-05T09:07:48;4.30;99.90
3756;DHT22;1893;52.526;13.360;2023-03-05T09:10:14;4.40;99.90
3756;DHT22;1893;52.526;13.360;2023-03-05T09:12:41;4.10;99.90
3756;DHT22;1893;52.526;13.360;2023-03-05T09:15:07;3.80;99.90
3756;DHT22;1893;52.526;13.360;2023-03-05T09:17:34;3.70;99.90
3756;DHT22;1893;52.526;13.360;2023-03-05T09:20:01;3.70;99.90
3756;DHT22;1893;52.526;13.360;2023-03-05T09:22:27;3.60;99.90
3756;DHT22;1893;52.526;13.360;2023-03-05T09:24:53;3.70;99.90
3756;DHT22;1893;52.526;13.360;2023-03-05T09:27:18;3.90;99.90
3756;DHT22;1893;52.526;13.360;2023-03-05T09:29:44;3.70;99.90
3756;DHT22;1893;52.526;13.360;2023-03-05T09:32:09;3.40;99.90
3756;DHT22;1893;52.526;13.360;2023-03-05T09:34:35;3.50;99.90
3756;DHT22;1893;52.526;13.360;2023-03-05T09:37:02;3.70;99.90
3756;DHT22;1893;52.526;13.360;2023-03-05T09:39:27;3.90;99.90
3756;DHT22;1893;52.526;13.360;2023-03-05T09:44:49;3.50;99.90
3756;DHT22;1893;52.526;13.360;2023-03-05T09:52:53;3.60;99.90
3756;DHT22;1893;52.526;13.360;2023-03-05T09:55:25;3.90;99.90
3756;DHT22;1893;52.526;13.360;2023-03-05T09:57:56;4.10;99.90
3756;DHT22;1893;52.526;13.360;2023-03-05T10:00:37;3.80;99.90
3756;DHT22;1893;52.526;13.360;2023-03-05T10:03:08;3.90;99.90
3756;DHT22;1893;52.526;13.360;2023-03-05T10:08:21;3.80;99.90
3756;DHT22;1893;52.526;13.360;2023-03-05T10:10:50;3.90;99.90
3756;DHT22;1893;52.526;13.360;2023-03-05T10:13:26;3.70;99.90
3756;DHT22;1893;52.526;13.360;2023-03-05T10:21:34;3.70;99.90
3756;DHT22;1893;52.526;13.360;2023-03-05T10:32:16;3.50;99.90
3756;DHT22;1893;52.526;13.360;2023-03-05T10:35:07;3.60;99.90
3756;DHT22;1893;52.526;13.360;2023-03-05T10:40:40;3.50;99.90
3756;DHT22;1893;52.526;13.360;2023-03-05T10:43:17;3.10;99.90
3756;DHT22;1893;52.526;13.360;2023-03-05T10:45:47;2.80;99.90
3756;DHT22;1893;52.526;13.360;2023-03-05T10:48:33;2.70;99.90
3756;DHT22;1893;52.526;13.360;2023-03-05T10:56:34;2.90;99.90
3756;DHT22;1893;52.526;13.360;2023-03-05T10:58:59;3.00;99.90
3756;DHT22;1893;52.526;13.360;2023-03-05T11:01:27;3.00;99.90
3756;DHT22;1893;52.526;13.360;2023-03-05T11:03:57;3.20;99.90
3756;DHT22;1893;52.526;13.360;2023-03-05T11:06:40;3.30;99.90
3756;DHT22;1893;52.526;13.360;2023-03-05T11:09:24;3.10;99.90
3756;DHT22;1893;52.526;13.360;2023-03-05T11:12:20;3.10;99.90
3756;DHT22;1893;52.526;13.360;2023-03-05T11:15:00;3.30;99.90
3756;DHT22;1893;52.526;13.360;2023-03-05T11:19:55;3.40;99.90
3756;DHT22;1893;52.526;13.360;2023-03-05T11:22:23;3.50;99.90
3756;DHT22;1893;52.526;13.360;2023-03-05T11:27:38;3.40;99.90
3756;DHT22;1893;52.526;13.360;2023-03-05T11:30:30;3.40;99.90
3756;DHT22;1893;52.526;13.360;2023-03-05T11:33:18;3.30;99.90
3756;DHT22;1893;52.526;13.360;2023-03-05T11:35:45;3.50;99.90
3756;DHT22;1893;52.526;13.360;2023-03-05T11:38:53;3.40;99.90
3756;DHT22;1893;52.526;13.360;2023-03-05T11:41:33;3.50;99.90
3756;DHT22;1893;52.526;13.360;2023-03-05T11:44:03;3.80;99.90
3756;DHT22;1893;52.526;13.360;2023-03-05T11:46:40;3.80;99.90
3756;DHT22;1893;52.526;13.360;2023-03-05T11:49:09;4.20;99.90
3756;DHT22;1893;52.526;13.360;2023-03-05T11:52:05;4.10;99.90
3756;DHT22;1893;52.526;13.360;2023-03-05T11:55:01;3.90;99.90
3756;DHT22;1893;52.526;13.360;2023-03-05T11:58:16;4.00;99.90
3756;DHT22;1893;52.526;13.360;2023-03-05T12:00:18;4.00;99.90
3756;DHT22;1893;52.526;13.360;2023-03-05T12:02:48;3.90;99.90
3756;DHT22;1893;52.526;13.360;2023-03-05T12:05:16;3.90;99.90
3756;DHT22;1893;52.526;13.360;2023-03-05T12:07:46;3.50;99.90
3756;DHT22;1893;52.526;13.360;2023-03-05T12:10:24;3.50;99.90
3756;DHT22;1893;52.526;13.360;2023-03-05T12:15:43;4.50;99.90
3756;DHT22;1893;52.526;13.360;2023-03-05T12:18:16;4.80;99.90
3756;DHT22;1893;52.526;13.360;2023-03-05T12:21:04;5.40;99.90
3756;DHT22;1893;52.526;13.360;2023-03-05T12:26:12;5.40;99.90
3756;DHT22;1893;52.526;13.360;2023-03-05T12:31:37;5.00;99.90
3756;DHT22;1893;52.526;13.360;2023-03-05T12:39:49;5.30;99.90
3756;DHT22;1893;52.526;13.360;2023-03-05T12:45:23;5.10;99.90
3756;DHT22;1893;52.526;13.360;2023-03-05T12:52:54;4.20;99.90
3756;DHT22;1893;52.526;13.360;2023-03-05T12:58:08;4.40;99.90
3756;DHT22;1893;52.526;13.360;2023-03-05T13:03:48;4.70;99.90
3756;DHT22;1893;52.526;13.360;2023-03-05T13:06:32;4.80;99.90
3756;DHT22;1893;52.526;13.360;2023-03-05T13:09:27;4.90;99.90
3756;DHT22;1893;52.526;13.360;2023-03-05T13:11:54;4.80;99.90
3756;DHT22;1893;52.526;13.360;2023-03-05T13:14:36;4.70;99.90
3756;DHT22;1893;52.526;13.360;2023-03-05T13:19:49;4.30;99.90
3756;DHT22;1893;52.526;13.360;2023-03-05T13:22:14;4.50;99.90
3756;DHT22;1893;52.526;13.360;2023-03-05T13:24:40;4.70;99.90
3756;DHT22;1893;52.526;13.360;2023-03-05T13:27:28;4.40;99.90
3756;DHT22;1893;52.526;13.360;2023-03-05T13:29:55;4.80;99.90
3756;DHT22;1893;52.526;13.360;2023-03-05T13:32:29;4.30;99.90
3756;DHT22;1893;52.526;13.360;2023-03-05T13:34:57;4.60;99.90
3756;DHT22;1893;52.526;13.360;2023-03-05T13:37:30;4.40;99.90
3756;DHT22;1893;52.526;13.360;2023-03-05T13:42:46;5.10;99.90
3756;DHT22;1893;52.526;13.360;2023-03-05T13:45:31;5.10;99.90
3756;DHT22;1893;52.526;13.360;2023-03-05T13:50:43;4.60;99.90
3756;DHT22;1893;52.526;13.360;2023-03-05T13:53:29;4.70;99.90
3756;DHT22;1893;52.526;13.360;2023-03-05T13:56:01;4.50;99.90
3756;DHT22;1893;52.526;13.360;2023-03-05T13:58:42;4.40;99.90
3756;DHT22;1893;52.526;13.360;2023-03-05T14:03:53;4.30;99.90
3756;DHT22;1893;52.526;13.360;2023-03-05T14:06:23;4.10;99.90
3756;DHT22;1893;52.526;13.360;2023-03-05T14:08:58;4.00;99.90
3756;DHT22;1893;52.526;13.360;2023-03-05T14:11:23;3.90;99.90
3756;DHT22;1893;52.526;13.360;2023-03-05T14:13:59;4.10;99.90
3756;DHT22;1893;52.526;13.360;2023-03-05T14:16:27;4.00;99.90
3756;DHT22;1893;52.526;13.360;2023-03-05T14:19:01;4.00;99.90
3756;DHT22;1893;52.526;13.360;2023-03-05T14:21:47;3.90;99.90
3756;DHT22;1893;52.526;13.360;2023-03-05T14:24:22;3.80;99.90
3756;DHT22;1893;52.526;13.360;2023-03-05T14:26:53;3.90;99.90
3756;DHT22;1893;52.526;13.360;2023-03-05T14:29:23;3.90;99.90
3756;DHT22;1893;52.526;13.360;2023-03-05T14:32:05;3.60;99.90
3756;DHT22;1893;52.526;13.360;2023-03-05T14:34:35;3.60;99.90
3756;DHT22;1893;52.526;13.360;2023-03-05T14:37:24;3.60;99.90
3756;DHT22;1893;52.526;13.360;2023-03-05T14:39:55;3.60;99.90
3756;DHT22;1893;52.526;13.360;2023-03-05T14:42:35;3.60;99.90
3756;DHT22;1893;52.526;13.360;2023-03-05T14:45:21;3.50;99.90
3756;DHT22;1893;52.526;13.360;2023-03-05T14:47:49;3.50;99.90
3756;DHT22;1893;52.526;13.360;2023-03-05T14:50:17;3.70;99.90
3756;DHT22;1893;52.526;13.360;2023-03-05T14:52:43;3.70;99.90
3756;DHT22;1893;52.526;13.360;2023-03-05T14:55:14;3.70;99.90
3756;DHT22;1893;52.526;13.360;2023-03-05T14:57:40;3.60;99.90
3756;DHT22;1893;52.526;13.360;2023-03-05T15:00:18;3.40;99.90
3756;DHT22;1893;52.526;13.360;2023-03-05T15:02:43;3.40;99.90
3756;DHT22;1893;52.526;13.360;2023-03-05T15:05:09;3.40;99.90
3756;DHT22;1893;52.526;13.360;2023-03-05T15:07:36;3.60;99.90
3756;DHT22;1893;52.526;13.360;2023-03-05T15:10:02;3.60;99.90
3756;DHT22;1893;52.526;13.360;2023-03-05T15:12:28;3.50;99.90
3756;DHT22;1893;52.526;13.360;2023-03-05T15:14:54;3.40;99.90
3756;DHT22;1893;52.526;13.360;2023-03-05T15:17:25;3.40;99.90
3756;DHT22;1893;52.526;13.360;2023-03-05T15:19:53;3.30;99.90
3756;DHT22;1893;52.526;13.360;2023-03-05T15:22:18;3.50;99.90
3756;DHT22;1893;52.526;13.360;2023-03-05T15:24:44;3.40;99.90
3756;DHT22;1893;52.526;13.360;2023-03-05T15:27:10;3.30;99.90
3756;DHT22;1893;52.526;13.360;2023-03-05T15:29:36;3.20;99.90
3756;DHT22;1893;52.526;13.360;2023-03-05T15:32:02;3.10;99.90
3756;DHT22;1893;52.526;13.360;2023-03-05T15:34:29;3.20;99.90
3756;DHT22;1893;52.526;13.360;2023-03-05T15:36:55;3.30;99.90
3756;DHT22;1893;52.526;13.360;2023-03-05T15:39:22;3.10;99.90
3756;DHT22;1893;52.526;13.360;2023-03-05T15:41:51;3.10;99.90
3756;DHT22;1893;52.526;13.360;2023-03-05T15:44:17;3.10;99.90
3756;DHT22;1893;52.526;13.360;2023-03-05T15:46:43;2.90;99.90
3756;DHT22;1893;52.526;13.360;2023-03-05T15:49:08;2.90;99.90
3756;DHT22;1893;52.526;13.360;2023-03-05T15:51:34;3.00;99.90
3756;DHT22;1893;52.526;13.360;2023-03-05T15:53:59;3.00;99.90
3756;DHT22;1893;52.526;13.360;2023-03-05T15:56:25;3.10;99.90
3756;DHT22;1893;52.526;13.360;2023-03-05T15:58:51;3.00;99.90
3756;DHT22;1893;52.526;13.360;2023-03-05T16:01:16;3.00;99.90
3756;DHT22;1893;52.526;13.360;2023-03-05T16:03:44;2.90;99.90
3756;DHT22;1893;52.526;13.360;2023-03-05T16:06:11;2.90;99.90
3756;DHT22;1893;52.526;13.360;2023-03-05T16:08:40;2.90;99.90
3756;DHT22;1893;52.526;13.360;2023-03-05T16:11:08;2.90;99.90
3756;DHT22;1893;52.526;13.360;2023-03-05T16:13:34;2.90;99.90
3756;DHT22;1893;52.526;13.360;2023-03-05T16:16:02;2.90;99.90
3756;DHT22;1893;52.526;13.360;2023-03-05T16:18:29;2.90;99.90
3756;DHT22;1893;52.526;13.360;2023-03-05T16:20:56;2.90;99.90
3756;DHT22;1893;52.526;13.360;2023-03-05T16:23:22;2.90;99.90
3756;DHT22;1893;52.526;13.360;2023-03-05T16:25:47;2.90;99.90
3756;DHT22;1893;52.526;13.360;2023-03-05T16:28:13;2.90;99.90
3756;DHT22;1893;52.526;13.360;2023-03-05T16:30:38;2.80;99.90
3756;DHT22;1893;52.526;13.360;2023-03-05T16:33:04;2.80;99.90
3756;DHT22;1893;52.526;13.360;2023-03-05T16:35:31;2.80;99.90
3756;DHT22;1893;52.526;13.360;2023-03-05T16:37:57;2.80;99.90
3756;DHT22;1893;52.526;13.360;2023-03-05T16:40:23;2.80;99.90
3756;DHT22;1893;52.526;13.360;2023-03-05T16:42:48;2.80;99.90
3756;DHT22;1893;52.526;13.360;2023-03-05T16:45:14;2.70;99.90
3756;DHT22;1893;52.526;13.360;2023-03-05T16:47:40;2.70;99.90
3756;DHT22;1893;52.526;13.360;2023-03-05T16:50:06;2.70;99.90
3756;DHT22;1893;52.526;13.360;2023-03-05T16:52:33;2.70;99.90
3756;DHT22;1893;52.526;13.360;2023-03-05T16:54:59;2.70;99.90
3756;DHT22;1893;52.526;13.360;2023-03-05T16:57:24;2.70;99.90
3756;DHT22;1893;52.526;13.360;2023-03-05T16:59:51;2.70;99.90
3756;DHT22;1893;52.526;13.360;2023-03-05T17:02:17;2.80;99.90
3756;DHT22;1893;52.526;13.360;2023-03-05T17:04:43;2.80;99.90
3756;DHT22;1893;52.526;13.360;2023-03-05T17:07:09;2.60;99.90
3756;DHT22;1893;52.526;13.360;2023-03-05T17:09:35;2.60;99.90
3756;DHT22;1893;52.526;13.360;2023-03-05T17:12:01;2.60;99.90
3756;DHT22;1893;52.526;13.360;2023-03-05T17:14:27;2.60;99.90
3756;DHT22;1893;52.526;13.360;2023-03-05T17:16:52;2.60;99.90
3756;DHT22;1893;52.526;13.360;2023-03-05T17:19:18;2.60;99.90
3756;DHT22;1893;52.526;13.360;2023-03-05T17:21:44;2.60;99.90
3756;DHT22;1893;52.526;13.360;2023-03-05T17:24:10;2.70;99.90
3756;DHT22;1893;52.526;13.360;2023-03-05T17:26:36;2.60;99.90
3756;DHT22;1893;52.526;13.360;2023-03-05T17:29:05;2.70;99.90
3756;DHT22;1893;52.526;13.360;2023-03-05T17:31:30;2.50;99.90